Time;durP1;ratioP1;P1;durP2;ratioP2;P2;SDS_P1;SDS_P2;PMS_P1;PMS_P2;Temp;Humidity;BMP_temperature;BMP_pressure;BME280_temperature;BME280_humidity;BME280_pressure;Samples;Min_cycle;Max_cycle;Signal;HPM_P1;HPM_P2
2024/02/01 00:00:40;;;;;;;17.23;10.27;;;6.90;99.90;;;;;;5090236;28;20040;-66
2024/02/01 00:03:06;;;;;;;19.50;9.90;;;7.00;99.90;;;;;;5071011;28;20099;-67
2024/02/01 00:05:31;;;;;;;15.93;9.32;;;7.00;99.90;;;;;;5100194;27;20427;-67
2024/02/01 00:07:57;;;;;;;13.15;9.23;;;7.00;99.90;;;;;;5084908;28;20079;-66
2024/02/01 00:10:22;;;;;;;18.65;8.85;;;7.10;99.90;;;;;;5086878;28;20043;-66
2024/02/01 00:12:48;;;;;;;20.45;9.93;;;7.00;99.90;;;;;;5088995;28;20395;-67
2024/02/01 00:15:14;;;;;;;14.55;9.10;;;7.10;99.90;;;;;;5087944;28;20040;-66
2024/02/01 00:17:40;;;;;;;14.75;9.25;;;7.20;99.90;;;;;;5086920;28;20071;-67
2024/02/01 00:20:07;;;;;;;18.00;8.57;;;7.20;99.90;;;;;;5087028;28;20083;-67
2024/02/01 00:22:32;;;;;;;12.15;7.82;;;7.20;99.90;;;;;;5085020;28;20105;-66
2024/02/01 00:24:59;;;;;;;13.32;8.45;;;7.30;99.90;;;;;;5086380;28;20036;-66
2024/02/01 00:27:25;;;;;;;11.02;7.28;;;7.30;99.90;;;;;;5087482;28;20134;-66
2024/02/01 00:29:50;;;;;;;15.52;7.95;;;7.30;99.90;;;;;;5087407;28;20485;-66
2024/02/01 00:32:16;;;;;;;11.30;7.32;;;7.40;99.90;;;;;;5071815;28;20036;-67
2024/02/01 00:34:45;;;;;;;9.43;6.53;;;7.40;99.90;;;;;;5088229;28;20440;-66
2024/02/01 00:37:11;;;;;;;12.35;6.68;;;7.40;99.90;;;;;;5087609;28;20044;-66
2024/02/01 00:39:37;;;;;;;12.02;6.68;;;7.50;99.90;;;;;;5088867;28;20046;-66
2024/02/01 00:42:03;;;;;;;11.93;7.05;;;7.50;99.90;;;;;;5087220;28;20044;-67
2024/02/01 00:44:29;;;;;;;11.30;6.72;;;7.60;99.90;;;;;;5083637;28;20058;-67
2024/02/01 00:46:54;;;;;;;11.38;7.30;;;7.50;99.90;;;;;;5116432;27;20040;-67
2024/02/01 00:49:20;;;;;;;10.27;6.95;;;7.50;99.90;;;;;;5084409;28;20039;-67
2024/02/01 00:51:45;;;;;;;14.43;6.50;;;7.50;99.90;;;;;;5088661;28;20040;-67
2024/02/01 00:54:11;;;;;;;11.32;7.35;;;7.60;99.90;;;;;;5069449;28;20036;-66
2024/02/01 00:56:37;;;;;;;12.02;5.68;;;7.60;99.90;;;;;;5084894;28;20123;-66
2024/02/01 00:59:02;;;;;;;11.77;6.90;;;7.60;99.90;;;;;;5085466;28;20075;-66
2024/02/01 01:01:28;;;;;;;11.30;6.20;;;7.60;99.90;;;;;;5084624;28;20051;-66
2024/02/01 01:03:55;;;;;;;8.93;6.03;;;7.70;99.90;;;;;;5088125;28;20043;-66
2024/02/01 01:06:21;;;;;;;10.80;5.70;;;7.70;99.90;;;;;;5089916;28;20036;-66
2024/02/01 01:08:47;;;;;;;11.52;6.28;;;7.80;99.90;;;;;;5085088;28;20067;-67
2024/02/01 01:11:12;;;;;;;16.70;6.63;;;7.80;99.90;;;;;;5089436;28;20448;-66
2024/02/01 01:13:38;;;;;;;17.73;6.82;;;7.90;99.90;;;;;;5086365;28;20035;-66
2024/02/01 01:16:04;;;;;;;15.52;6.82;;;7.90;99.90;;;;;;5084329;28;20517;-66
2024/02/01 01:18:30;;;;;;;21.40;6.78;;;7.90;99.90;;;;;;5085778;28;20397;-66
2024/02/01 01:20:57;;;;;;;18.58;6.20;;;8.10;99.90;;;;;;5087180;28;20042;-66
2024/02/01 01:23:23;;;;;;;18.73;5.93;;;8.10;99.90;;;;;;5087097;28;20040;-66
2024/02/01 01:25:48;;;;;;;25.67;6.00;;;8.10;99.90;;;;;;5084465;28;20093;-66
2024/02/01 01:28:14;;;;;;;20.08;6.38;;;8.10;99.90;;;;;;5083186;28;20090;-66
2024/02/01 01:30:40;;;;;;;28.95;7.00;;;8.10;99.90;;;;;;5084956;28;20032;-66
2024/02/01 01:33:06;;;;;;;21.88;5.78;;;8.30;99.90;;;;;;5086722;28;20565;-66
2024/02/01 01:35:31;;;;;;;22.65;6.03;;;8.10;99.90;;;;;;5086936;28;20123;-66
2024/02/01 01:37:57;;;;;;;20.98;4.85;;;8.20;99.90;;;;;;5086068;28;20039;-66
2024/02/01 01:40:24;;;;;;;25.20;7.07;;;8.20;99.90;;;;;;5080108;28;20068;-66
2024/02/01 01:42:50;;;;;;;35.67;5.90;;;8.20;99.90;;;;;;5084846;28;20048;-66
2024/02/01 01:45:16;;;;;;;18.58;4.18;;;8.20;99.90;;;;;;5087831;28;20039;-67
2024/02/01 01:47:42;;;;;;;17.95;4.13;;;8.20;99.90;;;;;;5113503;27;20040;-66
2024/02/01 01:50:08;;;;;;;30.30;4.10;;;8.10;99.90;;;;;;5080614;28;20036;-67
2024/02/01 01:52:35;;;;;;;20.23;3.42;;;8.10;99.90;;;;;;5085399;28;20036;-66
2024/02/01 01:55:05;;;;;;;29.40;5.25;;;8.10;99.90;;;;;;5088083;28;20039;-66
2024/02/01 01:57:31;;;;;;;26.08;4.78;;;8.00;99.90;;;;;;5115403;27;20113;-66
2024/02/01 01:59:58;;;;;;;15.50;3.00;;;8.00;99.90;;;;;;5084692;28;20040;-66
2024/02/01 02:02:27;;;;;;;26.20;3.75;;;8.00;99.90;;;;;;5113143;27;20458;-66
2024/02/01 02:04:54;;;;;;;20.35;3.78;;;7.90;99.90;;;;;;5084041;28;20072;-66
2024/02/01 02:07:19;;;;;;;23.45;4.03;;;7.90;99.90;;;;;;5086792;28;20130;-67
2024/02/01 02:09:45;;;;;;;20.70;3.83;;;7.90;99.90;;;;;;5081469;28;20526;-66
2024/02/01 02:12:11;;;;;;;24.38;4.53;;;7.80;99.90;;;;;;5082710;28;20044;-67
2024/02/01 02:14:36;;;;;;;25.55;3.45;;;7.80;99.90;;;;;;5116139;27;20516;-67
2024/02/01 02:17:04;;;;;;;26.08;3.05;;;7.80;99.90;;;;;;5085812;28;20478;-66
2024/02/01 02:19:30;;;;;;;27.92;4.72;;;7.70;99.90;;;;;;5082858;28;20533;-67
2024/02/01 02:21:55;;;;;;;22.60;3.50;;;7.70;99.90;;;;;;5123313;27;20122;-66
2024/02/01 02:24:21;;;;;;;20.65;3.25;;;7.60;99.90;;;;;;5089530;28;20028;-66
2024/02/01 02:26:48;;;;;;;19.08;3.30;;;7.60;99.90;;;;;;5081713;28;20115;-66
2024/02/01 02:29:15;;;;;;;25.52;3.17;;;7.50;99.90;;;;;;5084880;28;20113;-66
2024/02/01 02:31:47;;;;;;;23.00;3.78;;;7.50;99.90;;;;;;5115527;27;20469;-67
2024/02/01 02:34:13;;;;;;;22.23;3.33;;;7.40;99.90;;;;;;5088282;28;20052;-67
2024/02/01 02:36:40;;;;;;;20.20;3.47;;;7.30;99.90;;;;;;5085467;28;20390;-66
2024/02/01 02:39:14;;;;;;;22.48;3.05;;;7.20;99.90;;;;;;5086405;28;20043;-66
2024/02/01 02:41:40;;;;;;;21.95;3.75;;;7.20;99.90;;;;;;5082888;28;20041;-66
2024/02/01 02:44:09;;;;;;;14.20;3.20;;;7.10;99.90;;;;;;5117439;27;20071;-66
2024/02/01 02:46:34;;;;;;;26.65;3.83;;;7.10;99.90;;;;;;5088385;28;20051;-66
2024/02/01 02:49:00;;;;;;;18.02;3.67;;;7.00;99.90;;;;;;5081648;28;20036;-66
2024/02/01 02:51:26;;;;;;;20.63;3.42;;;7.00;99.90;;;;;;5084814;28;20036;-66
2024/02/01 02:53:52;;;;;;;15.60;2.58;;;6.90;99.90;;;;;;5083801;28;20035;-66
2024/02/01 02:56:17;;;;;;;20.98;2.90;;;6.80;99.90;;;;;;5118091;27;20055;-66
2024/02/01 02:58:43;;;;;;;22.58;3.10;;;6.80;99.90;;;;;;5083275;28;20036;-66
2024/02/01 03:01:09;;;;;;;19.42;2.90;;;6.70;99.90;;;;;;5118315;27;20035;-67
2024/02/01 03:03:40;;;;;;;14.60;2.42;;;6.70;99.90;;;;;;5085967;28;20043;-66
2024/02/01 03:06:09;;;;;;;18.48;2.53;;;6.60;99.90;;;;;;5083475;28;20481;-66
2024/02/01 03:08:41;;;;;;;17.52;2.83;;;6.60;99.90;;;;;;5082528;28;20053;-66
2024/02/01 03:11:10;;;;;;;18.88;3.25;;;6.50;99.90;;;;;;5083706;28;20401;-66
2024/02/01 03:13:45;;;;;;;22.05;4.55;;;6.40;99.90;;;;;;5082367;28;20105;-66
2024/02/01 03:16:22;;;;;;;18.63;2.83;;;6.40;99.90;;;;;;5119768;27;20044;-66
2024/02/01 03:18:49;;;;;;;25.48;3.05;;;6.30;99.90;;;;;;5081322;28;20040;-66
2024/02/01 03:21:16;;;;;;;30.05;4.53;;;6.20;99.90;;;;;;5115026;27;20040;-66
2024/02/01 03:23:43;;;;;;;22.33;3.38;;;6.20;99.90;;;;;;5114873;27;20040;-67
2024/02/01 03:26:10;;;;;;;23.17;3.20;;;6.20;99.90;;;;;;5087834;28;20083;-66
2024/02/01 03:28:37;;;;;;;17.60;3.38;;;6.10;99.90;;;;;;5088367;28;20494;-66
2024/02/01 03:31:03;;;;;;;25.50;4.40;;;6.00;99.90;;;;;;5066415;28;20128;-67
2024/02/01 03:33:30;;;;;;;23.00;2.88;;;6.00;99.90;;;;;;5085823;28;20175;-67
2024/02/01 03:35:57;;;;;;;26.42;3.85;;;6.00;99.90;;;;;;5081837;28;20471;-67
2024/02/01 03:38:23;;;;;;;22.83;4.47;;;5.90;99.90;;;;;;5082802;28;20127;-67
2024/02/01 03:40:49;;;;;;;27.25;4.80;;;5.90;99.90;;;;;;5081500;28;20040;-67
2024/02/01 03:43:15;;;;;;;24.30;3.95;;;5.80;99.90;;;;;;5066860;28;20042;-67
2024/02/01 03:45:48;;;;;;;24.83;3.28;;;5.80;99.90;;;;;;5084710;28;20466;-66
2024/02/01 03:48:17;;;;;;;25.67;3.97;;;5.70;99.90;;;;;;5085149;28;20048;-66
2024/02/01 03:50:44;;;;;;;28.52;3.92;;;5.70;99.90;;;;;;5116728;27;20079;-66
2024/02/01 03:53:10;;;;;;;22.70;4.22;;;5.60;99.90;;;;;;5080575;28;20040;-67
2024/02/01 03:55:42;;;;;;;21.08;4.18;;;5.60;99.90;;;;;;5086891;28;20040;-66
2024/02/01 03:58:08;;;;;;;24.88;3.47;;;5.60;99.90;;;;;;5083027;28;20032;-66
2024/02/01 04:00:34;;;;;;;23.20;2.88;;;5.50;99.90;;;;;;5080961;28;20100;-67
2024/02/01 04:03:03;;;;;;;28.50;4.00;;;5.50;99.90;;;;;;5085286;28;20040;-67
2024/02/01 04:05:36;;;;;;;22.05;3.60;;;5.40;99.90;;;;;;5080928;28;20044;-67
2024/02/01 04:08:06;;;;;;;22.65;3.58;;;5.30;99.90;;;;;;5084482;28;20071;-66
2024/02/01 04:10:34;;;;;;;26.73;3.50;;;5.30;99.90;;;;;;5116381;27;20052;-66
2024/02/01 04:13:00;;;;;;;23.60;3.30;;;5.30;99.90;;;;;;5082720;28;20053;-67
2024/02/01 04:15:26;;;;;;;23.73;2.83;;;5.20;99.90;;;;;;5081075;28;20134;-67
2024/02/01 04:17:51;;;;;;;23.65;4.68;;;5.20;99.90;;;;;;5088447;28;20068;-67
2024/02/01 04:20:17;;;;;;;25.90;3.75;;;5.10;99.90;;;;;;5084603;28;20543;-67
2024/02/01 04:22:43;;;;;;;28.25;4.32;;;5.10;99.90;;;;;;5087092;28;20032;-67
2024/02/01 04:25:08;;;;;;;18.77;3.08;;;5.00;99.90;;;;;;5083062;28;20503;-67
2024/02/01 04:27:35;;;;;;;24.10;3.03;;;5.00;99.90;;;;;;5087828;28;20037;-67
2024/02/01 04:30:04;;;;;;;20.00;3.10;;;5.00;99.90;;;;;;5086177;28;20050;-66
2024/02/01 04:32:29;;;;;;;27.33;3.95;;;5.00;99.90;;;;;;5087151;28;20492;-66
2024/02/01 04:34:55;;;;;;;25.92;3.58;;;5.00;99.90;;;;;;5071709;28;20047;-66
2024/02/01 04:37:22;;;;;;;26.23;4.95;;;4.90;99.90;;;;;;5084603;28;20386;-67
2024/02/01 04:39:49;;;;;;;19.55;3.47;;;4.90;99.90;;;;;;5087843;28;20052;-66
2024/02/01 04:42:15;;;;;;;26.88;3.97;;;4.90;99.90;;;;;;5087646;28;20593;-66
2024/02/01 04:44:46;;;;;;;29.08;4.03;;;4.90;99.90;;;;;;5085932;28;20063;-66
2024/02/01 04:47:12;;;;;;;22.17;3.45;;;4.80;99.90;;;;;;5085125;28;20044;-67
2024/02/01 04:49:38;;;;;;;23.33;3.90;;;4.80;99.90;;;;;;5080510;28;20358;-67
2024/02/01 04:52:05;;;;;;;26.02;3.88;;;4.70;99.90;;;;;;5086257;28;20072;-67
2024/02/01 04:54:30;;;;;;;26.20;5.30;;;4.70;99.90;;;;;;5087224;28;20028;-67
2024/02/01 04:56:58;;;;;;;32.95;7.00;;;4.70;99.90;;;;;;5116284;27;20062;-66
2024/02/01 04:59:23;;;;;;;17.05;2.85;;;4.70;99.90;;;;;;5086354;28;20045;-67
2024/02/01 05:01:49;;;;;;;23.05;3.75;;;4.70;99.90;;;;;;5069939;28;20042;-67
2024/02/01 05:04:14;;;;;;;25.02;3.08;;;4.60;99.90;;;;;;5085084;28;20041;-66
2024/02/01 05:06:40;;;;;;;21.45;3.05;;;4.60;99.90;;;;;;5082075;28;20050;-67
2024/02/01 05:09:23;;;;;;;27.80;5.38;;;4.50;99.90;;;;;;5083106;28;20131;-66
2024/02/01 05:11:50;;;;;;;26.35;4.20;;;4.50;99.90;;;;;;5103405;27;20048;-67
2024/02/01 05:14:16;;;;;;;20.08;3.42;;;4.50;99.90;;;;;;5085753;28;20040;-66
2024/02/01 05:16:42;;;;;;;23.35;3.75;;;4.40;99.90;;;;;;5085082;28;20539;-66
2024/02/01 05:19:08;;;;;;;28.70;4.22;;;4.40;99.90;;;;;;5081807;28;20048;-66
2024/02/01 05:21:34;;;;;;;27.98;4.32;;;4.40;99.90;;;;;;5081770;28;20402;-66
2024/02/01 05:24:01;;;;;;;25.88;3.25;;;4.40;99.90;;;;;;5080414;28;20039;-67
2024/02/01 05:26:27;;;;;;;21.67;3.70;;;4.40;99.90;;;;;;5080420;28;20044;-66
2024/02/01 05:28:52;;;;;;;28.70;4.75;;;4.30;99.90;;;;;;5113646;27;20088;-66
2024/02/01 05:31:21;;;;;;;23.73;3.85;;;4.30;99.90;;;;;;5082369;28;20035;-66
2024/02/01 05:33:47;;;;;;;25.00;3.50;;;4.30;99.90;;;;;;5114735;27;20079;-67
2024/02/01 05:36:13;;;;;;;24.73;3.95;;;4.20;99.90;;;;;;5087136;28;20123;-67
2024/02/01 05:38:39;;;;;;;25.63;3.63;;;4.20;99.90;;;;;;5085050;28;20115;-67
2024/02/01 05:41:11;;;;;;;23.85;3.03;;;4.20;99.90;;;;;;5075165;28;20047;-66
2024/02/01 05:43:41;;;;;;;31.50;3.67;;;4.20;99.90;;;;;;5113404;27;20040;-67
2024/02/01 05:46:14;;;;;;;26.70;3.90;;;4.20;99.90;;;;;;5110732;27;20036;-67
2024/02/01 05:48:43;;;;;;;24.05;4.10;;;4.10;99.90;;;;;;5082587;28;20046;-67
2024/02/01 05:51:09;;;;;;;34.83;3.95;;;4.20;99.90;;;;;;5087354;28;20025;-67
2024/02/01 05:53:35;;;;;;;27.60;4.35;;;4.10;99.90;;;;;;5115529;27;20086;-66
2024/02/01 05:56:00;;;;;;;25.05;3.22;;;4.10;99.90;;;;;;5085494;28;20051;-67
2024/02/01 05:58:29;;;;;;;29.40;3.13;;;4.00;99.90;;;;;;5119100;27;20486;-67
2024/02/01 06:00:55;;;;;;;35.95;4.63;;;4.00;99.90;;;;;;5082022;28;20047;-67
2024/02/01 06:03:23;;;;;;;27.73;4.95;;;4.00;99.90;;;;;;5087528;28;20105;-67
2024/02/01 06:05:49;;;;;;;28.98;4.40;;;4.00;99.90;;;;;;5090220;28;20036;-67
2024/02/01 06:08:18;;;;;;;33.65;4.35;;;3.90;99.90;;;;;;5087651;28;20398;-66
2024/02/01 06:10:44;;;;;;;29.67;3.47;;;4.00;99.90;;;;;;5086775;28;20043;-67
2024/02/01 06:13:11;;;;;;;35.55;4.72;;;3.90;99.90;;;;;;5081858;28;20047;-66
2024/02/01 06:15:37;;;;;;;26.08;4.38;;;3.90;99.90;;;;;;5085963;28;20100;-66
2024/02/01 06:18:04;;;;;;;29.60;4.70;;;3.90;99.90;;;;;;5084384;28;20036;-66
2024/02/01 06:20:29;;;;;;;26.90;3.38;;;3.90;99.90;;;;;;5081927;28;20495;-66
2024/02/01 06:22:57;;;;;;;25.25;4.15;;;3.90;99.90;;;;;;5085299;28;20088;-66
2024/02/01 06:25:23;;;;;;;23.45;3.83;;;3.90;99.90;;;;;;5083078;28;20428;-66
2024/02/01 06:27:48;;;;;;;30.48;3.70;;;3.80;99.90;;;;;;5082294;28;20039;-66
2024/02/01 06:30:15;;;;;;;19.77;3.33;;;3.80;99.90;;;;;;5081677;28;20413;-66
2024/02/01 06:32:41;;;;;;;28.42;4.20;;;3.80;99.90;;;;;;5080589;28;20974;-67
2024/02/01 06:35:16;;;;;;;32.53;4.53;;;3.80;99.90;;;;;;5113922;27;20055;-66
2024/02/01 06:38:15;;;;;;;26.50;3.38;;;3.70;99.90;;;;;;5083257;28;20039;-66
2024/02/01 06:43:17;;;;;;;24.13;3.50;;;3.80;99.90;;;;;;5081292;28;20054;-67
2024/02/01 06:46:22;;;;;;;27.52;3.60;;;3.70;99.90;;;;;;5084423;28;20056;-66
2024/02/01 06:49:01;;;;;;;30.38;4.15;;;3.70;99.90;;;;;;5085268;28;20073;-66
2024/02/01 06:51:32;;;;;;;27.17;4.15;;;3.70;99.90;;;;;;5086111;28;20064;-67
2024/02/01 06:54:05;;;;;;;23.95;4.03;;;3.70;99.90;;;;;;5085355;28;20087;-65
2024/02/01 06:56:52;;;;;;;37.20;4.68;;;3.70;99.90;;;;;;5081273;28;20044;-66
2024/02/01 07:02:14;;;;;;;27.75;4.40;;;3.70;99.90;;;;;;5058838;28;20047;-67
2024/02/01 07:04:53;;;;;;;29.73;4.47;;;3.70;99.90;;;;;;5084630;28;20580;-66
2024/02/01 07:07:26;;;;;;;28.27;4.35;;;3.60;99.90;;;;;;5082210;28;20044;-66
2024/02/01 07:09:58;;;;;;;23.58;3.58;;;3.70;99.90;;;;;;5082366;28;20047;-66
2024/02/01 07:12:42;;;;;;;24.95;3.42;;;3.60;99.90;;;;;;5082462;28;20044;-66
2024/02/01 07:18:30;;;;;;;30.83;4.40;;;3.60;99.90;;;;;;5079045;28;20048;-66
2024/02/01 07:20:50;;;;;;;27.05;4.07;;;3.60;99.90;;;;;;5081128;28;20067;-66
2024/02/01 07:25:49;;;;;;;31.70;3.47;;;3.50;99.90;;;;;;5081684;28;20122;-66
2024/02/01 07:58:30;;;;;;;28.27;4.47;;;3.70;99.90;;;;;;5111335;27;20048;-66
2024/02/01 08:01:01;;;;;;;33.03;3.95;;;3.90;99.90;;;;;;5076408;28;20044;-66
2024/02/01 08:08:39;;;;;;;27.75;4.82;;;3.90;99.90;;;;;;5109626;27;20497;-66
2024/02/01 08:11:05;;;;;;;25.75;4.28;;;4.00;99.90;;;;;;5085140;28;20035;-66
2024/02/01 08:13:31;;;;;;;20.27;3.20;;;4.00;99.90;;;;;;5082536;28;20033;-67
2024/02/01 08:15:58;;;;;;;28.85;4.10;;;4.00;99.90;;;;;;5081731;28;20051;-67
2024/02/01 08:18:26;;;;;;;25.02;4.38;;;4.20;99.90;;;;;;5115144;27;20043;-67
2024/02/01 08:20:52;;;;;;;24.13;4.18;;;4.20;99.90;;;;;;5081431;28;20086;-66
2024/02/01 08:23:23;;;;;;;29.63;4.70;;;4.20;99.90;;;;;;5080541;28;20469;-66
2024/02/01 08:25:51;;;;;;;30.50;4.47;;;4.30;99.90;;;;;;5086722;28;20040;-67
2024/02/01 08:28:18;;;;;;;33.00;5.63;;;4.30;99.90;;;;;;5085618;28;20054;-66
2024/02/01 08:30:45;;;;;;;37.05;5.43;;;4.40;99.90;;;;;;5084282;28;20123;-66
2024/02/01 08:33:21;;;;;;;21.60;3.67;;;4.40;99.90;;;;;;5115047;27;20529;-66
2024/02/01 08:35:47;;;;;;;24.55;3.92;;;4.50;99.90;;;;;;5084825;28;20040;-66
2024/02/01 08:38:13;;;;;;;24.08;3.72;;;4.60;99.90;;;;;;5086254;28;20040;-67
2024/02/01 08:40:40;;;;;;;31.00;5.25;;;4.60;99.90;;;;;;5095049;28;20048;-67
2024/02/01 08:43:07;;;;;;;26.08;3.50;;;4.70;99.90;;;;;;5083748;28;20119;-67
2024/02/01 08:45:37;;;;;;;35.53;6.18;;;4.80;99.90;;;;;;5073881;28;20844;-67
2024/02/01 08:48:04;;;;;;;19.55;3.47;;;4.70;99.90;;;;;;5082073;28;20449;-67
2024/02/01 08:50:42;;;;;;;24.55;3.28;;;4.80;99.90;;;;;;5079233;28;20051;-67
2024/02/01 08:53:09;;;;;;;25.27;4.15;;;4.90;99.90;;;;;;5080456;28;20075;-67
2024/02/01 08:55:35;;;;;;;25.23;4.28;;;4.90;99.90;;;;;;5082224;28;20031;-67
2024/02/01 08:58:08;;;;;;;27.05;3.97;;;5.00;99.90;;;;;;5084880;28;20394;-67
2024/02/01 09:00:34;;;;;;;29.73;5.10;;;5.00;99.90;;;;;;5079312;28;20062;-67
2024/02/01 09:03:04;;;;;;;30.27;4.80;;;5.00;99.90;;;;;;5114056;27;20040;-67
2024/02/01 09:05:35;;;;;;;26.88;4.80;;;5.10;99.90;;;;;;5081090;28;20040;-67
2024/02/01 09:08:10;;;;;;;26.33;4.22;;;5.10;99.90;;;;;;5081220;28;20395;-67
2024/02/01 09:10:37;;;;;;;20.40;4.75;;;5.20;99.90;;;;;;5081187;28;20070;-67
2024/02/01 09:13:02;;;;;;;22.73;3.28;;;5.20;99.90;;;;;;5059589;28;20406;-67
2024/02/01 09:15:31;;;;;;;28.95;5.30;;;5.30;99.90;;;;;;5112996;27;20051;-66
2024/02/01 09:17:57;;;;;;;30.23;4.97;;;5.60;99.90;;;;;;5076374;28;20397;-67
2024/02/01 09:20:25;;;;;;;27.38;4.45;;;5.40;99.90;;;;;;5082690;28;20050;-67
2024/02/01 09:22:55;;;;;;;24.98;3.83;;;5.40;99.90;;;;;;5080611;28;20036;-67
2024/02/01 09:25:22;;;;;;;30.90;5.00;;;5.50;99.90;;;;;;5097304;28;20052;-67
2024/02/01 09:27:49;;;;;;;29.27;4.45;;;5.50;99.90;;;;;;5075778;28;20124;-67
2024/02/01 09:30:17;;;;;;;38.10;5.10;;;5.60;99.90;;;;;;5080071;28;20336;-67
2024/02/01 09:32:44;;;;;;;36.30;5.93;;;5.60;99.90;;;;;;5079262;28;20483;-67
2024/02/01 09:35:11;;;;;;;30.40;5.28;;;5.70;99.90;;;;;;5117172;27;20153;-67
2024/02/01 09:37:37;;;;;;;28.92;4.90;;;5.70;99.90;;;;;;5081375;28;20040;-67
2024/02/01 09:40:04;;;;;;;23.17;4.35;;;5.80;99.90;;;;;;5079816;28;20093;-67
2024/02/01 09:42:31;;;;;;;30.10;4.75;;;5.80;99.90;;;;;;5065170;28;20043;-67
2024/02/01 09:44:58;;;;;;;24.08;3.92;;;5.90;99.90;;;;;;5078814;28;20504;-67
2024/02/01 09:47:25;;;;;;;29.80;4.35;;;5.90;99.90;;;;;;5079069;28;20036;-67
2024/02/01 09:49:54;;;;;;;29.05;5.40;;;5.90;99.90;;;;;;5108747;27;20506;-67
2024/02/01 09:52:19;;;;;;;26.33;5.28;;;6.00;99.90;;;;;;5114397;27;20131;-67
2024/02/01 09:54:46;;;;;;;25.02;6.18;;;6.00;99.90;;;;;;5110966;27;20124;-67
2024/02/01 09:57:15;;;;;;;23.48;4.10;;;6.10;99.90;;;;;;5081659;28;20032;-67
2024/02/01 09:59:41;;;;;;;28.00;3.88;;;6.20;99.90;;;;;;5077273;28;20043;-67
2024/02/01 10:02:10;;;;;;;25.95;4.68;;;6.20;99.90;;;;;;5080031;28;20075;-67
2024/02/01 10:04:35;;;;;;;25.25;4.65;;;6.30;99.90;;;;;;5081292;28;20063;-67
2024/02/01 10:07:01;;;;;;;35.42;5.05;;;6.40;99.90;;;;;;5112395;27;21005;-67
2024/02/01 10:09:28;;;;;;;26.10;4.47;;;6.40;99.90;;;;;;5077867;28;20037;-67
2024/02/01 10:11:54;;;;;;;32.88;5.43;;;6.50;99.90;;;;;;5076561;28;20071;-67
2024/02/01 10:14:23;;;;;;;25.77;4.25;;;6.50;99.90;;;;;;5077931;28;20416;-67
2024/02/01 10:16:48;;;;;;;30.00;7.35;;;6.60;99.90;;;;;;5112804;27;20097;-67
2024/02/01 10:19:15;;;;;;;29.77;4.57;;;6.70;99.90;;;;;;5077508;28;20077;-67
2024/02/01 10:21:40;;;;;;;26.52;4.80;;;6.80;99.90;;;;;;5113116;27;20075;-67
2024/02/01 10:24:06;;;;;;;34.72;7.13;;;6.90;99.90;;;;;;5081852;28;20071;-67
2024/02/01 10:26:32;;;;;;;23.65;5.25;;;6.90;99.90;;;;;;5113967;27;20058;-67
2024/02/01 10:28:58;;;;;;;32.58;5.93;;;7.00;99.90;;;;;;5073633;28;20510;-67
2024/02/01 10:31:25;;;;;;;25.30;3.95;;;7.10;99.90;;;;;;5082753;28;20028;-67
2024/02/01 10:33:52;;;;;;;23.95;4.88;;;7.20;99.90;;;;;;5077118;28;20049;-67
2024/02/01 10:36:21;;;;;;;24.98;5.50;;;7.30;99.90;;;;;;5097632;28;20044;-67
2024/02/01 10:38:53;;;;;;;32.03;6.07;;;7.40;99.90;;;;;;5077880;28;20040;-67
2024/02/01 10:41:27;;;;;;;28.50;5.47;;;7.40;99.90;;;;;;5079949;28;20059;-68
2024/02/01 10:43:55;;;;;;;44.13;6.75;;;7.60;99.90;;;;;;5075318;28;20059;-67
2024/02/01 10:46:29;;;;;;;27.77;5.13;;;7.70;99.90;;;;;;5082378;28;20051;-67
2024/02/01 10:49:18;;;;;;;24.50;5.10;;;7.80;99.90;;;;;;5081901;28;20088;-67
2024/02/01 10:51:49;;;;;;;23.65;4.07;;;7.80;99.90;;;;;;5081168;28;20166;-67
2024/02/01 10:54:15;;;;;;;27.85;6.28;;;7.90;99.90;;;;;;5111752;27;20044;-67
2024/02/01 10:56:42;;;;;;;22.98;4.82;;;7.90;99.90;;;;;;5078684;28;20032;-67
2024/02/01 10:59:09;;;;;;;31.02;5.45;;;7.90;99.90;;;;;;5079197;28;20088;-67
2024/02/01 11:01:37;;;;;;;27.40;4.60;;;8.10;99.90;;;;;;5109776;27;20078;-67
2024/02/01 11:04:05;;;;;;;24.83;5.75;;;8.20;99.90;;;;;;5083212;28;20039;-67
2024/02/01 11:06:31;;;;;;;26.73;4.65;;;8.30;99.90;;;;;;5084480;28;20155;-67
2024/02/01 11:09:05;;;;;;;23.65;5.00;;;8.50;99.90;;;;;;5080281;28;20125;-67
2024/02/01 11:11:32;;;;;;;28.92;4.78;;;8.50;99.90;;;;;;5110187;28;20037;-68
2024/02/01 11:14:17;;;;;;;31.38;5.45;;;8.60;99.90;;;;;;5082589;28;20044;-68
2024/02/01 11:16:49;;;;;;;22.73;4.63;;;8.70;99.90;;;;;;5082474;28;20040;-67
2024/02/01 11:19:25;;;;;;;31.58;4.47;;;8.70;99.90;;;;;;5079214;28;20475;-67
2024/02/01 11:21:56;;;;;;;22.65;3.90;;;8.60;99.90;;;;;;5113025;28;20040;-67
2024/02/01 11:24:30;;;;;;;19.75;4.47;;;8.70;99.90;;;;;;5080317;28;20448;-67
2024/02/01 11:26:58;;;;;;;21.88;4.97;;;8.70;99.90;;;;;;5115996;27;20040;-67
2024/02/01 11:29:25;;;;;;;15.05;3.47;;;8.70;99.90;;;;;;5114042;27;20694;-67
2024/02/01 11:31:56;;;;;;;29.90;5.05;;;8.70;99.90;;;;;;5083826;28;20501;-67
2024/02/01 11:34:23;;;;;;;24.17;4.28;;;8.70;99.90;;;;;;5084867;28;20100;-67
2024/02/01 11:36:50;;;;;;;24.50;5.10;;;8.70;99.90;;;;;;5084023;28;20093;-67
2024/02/01 11:39:15;;;;;;;28.23;4.43;;;8.90;99.90;;;;;;5082636;28;20039;-67
2024/02/01 11:42:03;;;;;;;23.25;5.25;;;8.90;99.90;;;;;;5113124;27;20040;-67
2024/02/01 11:44:28;;;;;;;26.50;5.25;;;9.00;99.90;;;;;;5082162;28;20044;-67
2024/02/01 11:46:57;;;;;;;20.27;4.40;;;9.00;99.90;;;;;;5115066;27;20076;-67
2024/02/01 11:49:25;;;;;;;24.02;5.13;;;9.00;99.90;;;;;;5079426;28;20048;-68
2024/02/01 11:51:56;;;;;;;23.73;4.30;;;8.90;99.90;;;;;;5085403;28;20486;-67
2024/02/01 11:54:27;;;;;;;25.42;4.32;;;8.90;99.90;;;;;;5082926;28;20044;-67
2024/02/01 11:56:54;;;;;;;34.25;6.43;;;8.80;99.90;;;;;;5081973;28;20089;-67
2024/02/01 11:59:21;;;;;;;26.60;6.45;;;8.90;99.90;;;;;;5065590;28;20037;-67
2024/02/01 12:01:48;;;;;;;21.83;4.75;;;8.80;99.90;;;;;;5083545;28;20039;-67
2024/02/01 12:04:16;;;;;;;20.45;3.80;;;8.80;99.90;;;;;;5081376;28;20090;-67
2024/02/01 12:06:43;;;;;;;25.77;4.45;;;8.80;99.90;;;;;;5079655;28;20127;-67
2024/02/01 12:09:10;;;;;;;22.00;4.13;;;8.80;99.90;;;;;;5081573;28;20097;-67
2024/02/01 12:11:43;;;;;;;24.45;4.60;;;8.70;99.90;;;;;;5077474;28;20032;-67
2024/02/01 12:14:11;;;;;;;28.63;5.63;;;8.70;99.90;;;;;;5079452;28;20040;-67
2024/02/01 12:16:38;;;;;;;25.58;3.60;;;8.70;99.90;;;;;;5088421;28;20082;-67
2024/02/01 12:19:12;;;;;;;16.25;3.53;;;8.60;99.90;;;;;;5081372;28;20139;-67
2024/02/01 12:21:41;;;;;;;20.77;5.00;;;8.50;99.90;;;;;;5112964;27;20113;-67
2024/02/01 12:24:08;;;;;;;22.80;3.63;;;8.50;99.90;;;;;;5081722;28;20055;-67
2024/02/01 12:26:34;;;;;;;16.48;3.75;;;8.40;99.90;;;;;;5084729;28;20411;-67
2024/02/01 12:29:00;;;;;;;22.50;3.97;;;8.40;99.90;;;;;;5081238;28;20048;-67
2024/02/01 12:31:26;;;;;;;19.60;3.67;;;8.50;99.90;;;;;;5079292;28;20039;-67
2024/02/01 12:33:54;;;;;;;25.50;4.55;;;8.60;99.90;;;;;;5077399;28;20130;-67
2024/02/01 12:36:20;;;;;;;22.17;3.55;;;8.70;99.90;;;;;;5081464;28;20055;-67
2024/02/01 12:38:47;;;;;;;21.95;4.28;;;8.70;99.90;;;;;;5085077;28;20040;-68
2024/02/01 12:41:15;;;;;;;22.88;5.18;;;8.90;99.90;;;;;;5082161;28;20089;-67
2024/02/01 12:43:42;;;;;;;26.52;4.82;;;8.90;99.90;;;;;;5085351;28;20386;-67
2024/02/01 12:46:11;;;;;;;19.48;2.95;;;9.00;99.90;;;;;;5112762;27;20048;-67
2024/02/01 12:48:38;;;;;;;15.75;3.55;;;9.00;99.90;;;;;;5081169;28;20043;-67
2024/02/01 12:51:07;;;;;;;21.13;4.75;;;9.00;99.90;;;;;;5078891;28;20048;-67
2024/02/01 12:53:33;;;;;;;24.70;4.70;;;9.00;99.90;;;;;;5081816;28;20042;-67
2024/02/01 12:55:59;;;;;;;20.58;4.38;;;9.00;99.90;;;;;;5099265;28;20032;-67
2024/02/01 12:58:24;;;;;;;31.92;3.45;;;9.10;99.90;;;;;;5082054;28;20190;-67
2024/02/01 13:00:50;;;;;;;22.40;4.32;;;9.10;99.90;;;;;;5082021;28;20044;-67
2024/02/01 13:03:17;;;;;;;20.45;3.25;;;9.10;99.90;;;;;;5082643;28;20035;-67
2024/02/01 13:05:44;;;;;;;17.52;4.30;;;9.10;99.90;;;;;;5086475;28;20045;-67
2024/02/01 13:08:14;;;;;;;23.52;4.30;;;9.20;99.90;;;;;;5084109;28;20124;-67
2024/02/01 13:10:41;;;;;;;23.77;4.85;;;9.20;99.90;;;;;;5079518;28;20054;-67
2024/02/01 13:13:07;;;;;;;20.35;4.65;;;9.20;99.90;;;;;;5079451;28;20051;-67
2024/02/01 13:15:34;;;;;;;25.38;4.25;;;9.20;99.90;;;;;;5081023;28;20041;-67
2024/02/01 13:18:00;;;;;;;19.80;4.05;;;9.10;99.90;;;;;;5083014;28;20040;-67
2024/02/01 13:20:26;;;;;;;17.88;4.30;;;9.00;99.90;;;;;;5082704;28;20097;-67
2024/02/01 13:22:53;;;;;;;13.38;3.50;;;9.00;99.90;;;;;;5081116;28;20074;-67
2024/02/01 13:25:19;;;;;;;22.95;4.88;;;8.90;99.90;;;;;;5080193;28;20032;-67
2024/02/01 13:27:47;;;;;;;23.23;4.53;;;8.90;99.90;;;;;;5081425;28;20028;-67
2024/02/01 13:30:14;;;;;;;21.50;3.40;;;8.80;99.90;;;;;;5080771;28;20519;-67
2024/02/01 13:32:40;;;;;;;22.80;4.20;;;8.80;99.90;;;;;;5082451;28;20044;-67
2024/02/01 13:35:06;;;;;;;25.73;4.00;;;8.70;99.90;;;;;;5065593;28;20051;-67
2024/02/01 13:37:34;;;;;;;21.70;3.70;;;8.70;99.90;;;;;;5082416;28;20466;-67